createdAt,value
2022-10-10T00:01:27.415Z,2.60
2022-10-10T00:06:33.293Z,2.43
2022-10-10T00:11:36.963Z,2.40
2022-10-10T00:16:41.035Z,2.13
2022-10-10T00:21:43.881Z,2.50
2022-10-10T00:26:46.723Z,1.97
2022-10-10T00:31:50.784Z,2.10
2022-10-10T00:36:53.556Z,1.87
2022-10-10T00:41:56.355Z,1.97
2022-10-10T00:47:00.461Z,2.17
2022-10-10T00:52:03.650Z,2.07
2022-10-10T00:57:09.823Z,2.33
2022-10-10T01:02:13.935Z,2.33
2022-10-10T01:07:20.031Z,2.10
2022-10-10T01:12:27.791Z,2.20
2022-10-10T01:17:36.119Z,2.20
2022-10-10T01:22:46.968Z,2.30
2022-10-10T01:27:54.749Z,2.30
2022-10-10T01:33:07.594Z,2.20
2022-10-10T01:38:26.366Z,1.80
2022-10-10T01:43:30.717Z,2.00
2022-10-10T01:48:34.815Z,1.83
2022-10-10T01:53:44.512Z,2.00
2022-10-10T01:59:02.272Z,2.00
2022-10-10T02:04:15.061Z,2.17
2022-10-10T02:09:22.846Z,1.73
2022-10-10T02:14:29.967Z,2.00
2022-10-10T02:19:34.470Z,1.67
2022-10-10T02:24:37.460Z,1.80
2022-10-10T02:29:43.701Z,2.20
2022-10-10T02:34:50.928Z,1.77
2022-10-10T02:39:59.116Z,1.77
2022-10-10T02:45:02.781Z,1.63
2022-10-10T02:50:08.037Z,1.77
2022-10-10T02:55:11.042Z,1.80
2022-10-10T03:00:15.041Z,1.80
2022-10-10T03:05:19.356Z,2.10
2022-10-10T03:10:22.155Z,1.87
2022-10-10T03:15:24.891Z,2.00
2022-10-10T03:20:29.008Z,2.10
2022-10-10T03:25:31.765Z,1.77
2022-10-10T03:30:34.595Z,2.00
2022-10-10T03:35:39.079Z,1.90
2022-10-10T03:40:42.918Z,1.87
2022-10-10T03:45:47.602Z,1.90
2022-10-10T03:50:51.778Z,1.80
2022-10-10T03:55:55.497Z,2.13
2022-10-10T04:00:59.641Z,1.73
2022-10-10T04:06:03.783Z,1.90
2022-10-10T04:11:06.744Z,2.30
2022-10-10T04:16:09.529Z,2.10
2022-10-10T04:21:13.975Z,2.03
2022-10-10T04:26:16.767Z,2.00
2022-10-10T04:31:19.539Z,2.20
2022-10-10T04:36:23.822Z,2.13
2022-10-10T04:41:26.900Z,1.93
2022-10-10T04:46:29.642Z,2.17
2022-10-10T04:51:33.971Z,2.00
2022-10-10T04:56:36.715Z,2.03
2022-10-10T05:01:39.611Z,1.67
2022-10-10T05:06:43.994Z,1.80
2022-10-10T05:11:46.729Z,2.20
2022-10-10T05:16:49.567Z,1.97
2022-10-10T05:21:53.682Z,2.10
2022-10-10T05:26:56.473Z,2.33
2022-10-10T05:31:59.244Z,2.20
2022-10-10T05:37:03.396Z,2.17
2022-10-10T05:42:06.393Z,2.20
2022-10-10T05:47:09.222Z,2.30
2022-10-10T05:52:13.488Z,2.10
2022-10-10T05:57:16.653Z,2.07
2022-10-10T06:02:19.504Z,2.30
2022-10-10T06:07:23.860Z,1.67
2022-10-10T06:12:26.621Z,1.97
2022-10-10T06:17:29.391Z,1.93
2022-10-10T06:22:33.505Z,2.40
2022-10-10T06:27:36.626Z,2.10
2022-10-10T06:32:39.725Z,2.23
2022-10-10T06:37:43.829Z,1.80
2022-10-10T06:42:46.567Z,2.07
2022-10-10T06:47:49.391Z,2.10
2022-10-10T06:52:53.785Z,1.97
2022-10-10T06:57:56.740Z,2.03
2022-10-10T07:02:59.510Z,2.30
2022-10-10T07:08:03.603Z,2.63
2022-10-10T07:13:06.401Z,1.93
2022-10-10T07:18:09.194Z,1.80
2022-10-10T07:23:13.468Z,1.87
2022-10-10T07:28:16.473Z,2.20
2022-10-10T07:33:19.202Z,2.00
2022-10-10T07:38:23.292Z,1.70
2022-10-10T07:43:26.043Z,1.93
2022-10-10T07:48:28.845Z,1.98
2022-10-10T07:53:32.994Z,2.30
2022-10-10T07:58:36.144Z,1.77
2022-10-10T08:03:39.413Z,1.77
2022-10-10T08:08:50.792Z,2.03
2022-10-10T08:13:54.248Z,1.85
2022-10-10T08:18:57.048Z,2.25
2022-10-10T08:24:01.123Z,1.73
2022-10-10T08:29:03.873Z,2.00
2022-10-10T08:34:06.713Z,1.70
2022-10-10T08:39:11.293Z,1.90
2022-10-10T08:44:20.823Z,1.92
2022-10-10T08:49:30.879Z,2.03
2022-10-10T08:54:37.480Z,2.03
2022-10-10T08:59:43.095Z,2.08
2022-10-10T09:04:45.933Z,2.00
2022-10-10T09:09:58.380Z,2.30
2022-10-10T09:15:10.855Z,2.03
2022-10-10T09:20:23.128Z,2.15
2022-10-10T09:25:32.654Z,2.20
2022-10-10T09:30:41.087Z,1.80
2022-10-10T09:35:44.263Z,2.70
2022-10-10T09:40:53.279Z,2.10
2022-10-10T09:45:57.139Z,2.10
2022-10-10T09:51:02.886Z,1.90
2022-10-10T09:56:09.261Z,2.17
2022-10-10T10:01:15.655Z,2.00
2022-10-10T10:06:18.520Z,2.22
2022-10-10T10:11:29.124Z,2.45
2022-10-10T10:16:34.830Z,2.20
2022-10-10T10:21:51.029Z,2.47
2022-10-10T10:26:57.332Z,2.33
2022-10-10T10:32:07.145Z,2.65
2022-10-10T10:37:19.023Z,2.33
2022-10-10T10:42:39.206Z,2.17
2022-10-10T10:47:53.892Z,2.10
2022-10-10T10:53:04.966Z,2.20
2022-10-10T10:59:10.403Z,2.00
2022-10-10T11:05:19.393Z,2.13
2022-10-10T11:09:49.127Z,1.92
2022-10-10T11:14:58.960Z,2.47
2022-10-10T11:20:06.796Z,2.22
2022-10-10T11:25:16.900Z,2.28
2022-10-10T11:30:23.981Z,2.20
2022-10-10T11:35:36.085Z,1.90
2022-10-10T11:40:48.823Z,2.00
2022-10-10T11:46:02.931Z,2.03
2022-10-10T11:51:17.879Z,2.30
2022-10-10T11:56:27.545Z,2.22
2022-10-10T12:01:36.643Z,2.20
2022-10-10T12:06:44.867Z,2.42
2022-10-10T12:11:52.717Z,2.47
2022-10-10T12:16:57.207Z,2.40
2022-10-10T12:22:02.064Z,2.55
2022-10-10T12:27:43.597Z,3.20
2022-10-10T12:32:50.145Z,2.42
2022-10-10T12:38:24.266Z,2.40
2022-10-10T12:43:39.407Z,2.70
2022-10-10T12:48:44.222Z,2.35
2022-10-10T12:53:50.454Z,2.70
2022-10-10T12:58:53.417Z,2.22
2022-10-10T13:03:57.813Z,2.45
2022-10-10T13:09:03.779Z,2.67
2022-10-10T13:14:09.288Z,2.67
2022-10-10T13:19:19.247Z,2.20
2022-10-10T13:24:27.706Z,2.38
2022-10-10T13:29:32.700Z,2.40
2022-10-10T13:34:40.468Z,2.42
2022-10-10T13:39:43.834Z,2.50
2022-10-10T13:44:51.502Z,2.60
2022-10-10T13:49:58.681Z,2.70
2022-10-10T13:55:16.958Z,2.80
2022-10-10T14:00:22.314Z,2.83
2022-10-10T14:05:30.162Z,2.28
2022-10-10T14:10:36.011Z,2.95
2022-10-10T14:15:46.647Z,3.17
2022-10-10T14:20:51.470Z,2.45
2022-10-10T14:25:54.280Z,2.63
2022-10-10T14:30:57.142Z,3.05
2022-10-10T14:36:01.714Z,3.08
2022-10-10T14:41:05.269Z,3.00
2022-10-10T14:46:17.797Z,2.97
2022-10-10T14:51:33.240Z,2.80
2022-10-10T14:57:08.680Z,2.72
2022-10-10T15:02:01.041Z,3.33
2022-10-10T15:07:13.304Z,3.60
2022-10-10T15:12:17.343Z,3.60
2022-10-10T15:17:20.141Z,4.22
2022-10-10T15:22:24.290Z,3.10
2022-10-10T15:27:28.288Z,3.63
2022-10-10T15:32:31.083Z,3.50
2022-10-10T15:37:35.222Z,2.78
2022-10-10T15:42:38.109Z,3.08
2022-10-10T15:47:46.272Z,3.15
2022-10-10T15:52:50.753Z,3.00
2022-10-10T15:57:53.588Z,3.38
2022-10-10T16:02:56.351Z,3.22
2022-10-10T16:08:00.865Z,3.47
2022-10-10T16:13:03.624Z,3.95
2022-10-10T16:18:06.600Z,3.88
2022-10-10T16:23:10.680Z,3.58
2022-10-10T16:28:13.598Z,3.95
2022-10-10T16:33:16.417Z,4.07
2022-10-10T16:38:20.596Z,4.10
2022-10-10T16:43:23.351Z,4.25
2022-10-10T16:48:26.215Z,4.30
2022-10-10T16:53:30.583Z,3.40
2022-10-10T16:58:34.267Z,4.05
2022-10-10T17:03:37.120Z,4.07
2022-10-10T17:08:41.324Z,3.72
2022-10-10T17:13:44.564Z,3.53
2022-10-10T17:18:47.551Z,4.32
2022-10-10T17:23:52.471Z,3.83
2022-10-10T17:28:56.312Z,3.80
2022-10-10T17:33:59.064Z,3.75
2022-10-10T17:39:03.640Z,4.10
2022-10-10T17:44:10.338Z,4.25
2022-10-10T17:49:14.050Z,4.57
2022-10-10T17:54:18.338Z,5.05
2022-10-10T17:59:21.175Z,4.10
2022-10-10T18:04:24.181Z,4.00
2022-10-10T18:09:28.307Z,3.67
2022-10-10T18:14:31.036Z,4.25
2022-10-10T18:19:33.918Z,4.68
2022-10-10T18:24:40.689Z,4.72
2022-10-10T18:29:44.447Z,5.20
2022-10-10T18:34:48.381Z,4.80
2022-10-10T18:39:56.414Z,7.03
2022-10-10T18:45:00.300Z,4.97
2022-10-10T18:50:03.461Z,5.13
2022-10-10T18:55:08.665Z,5.70
2022-10-10T19:00:13.306Z,5.82
2022-10-10T19:05:16.707Z,5.60
2022-10-10T19:10:26.322Z,6.68
2022-10-10T19:15:29.168Z,5.68
2022-10-10T19:20:32.436Z,5.13
2022-10-10T19:25:39.594Z,5.88
2022-10-10T19:30:44.100Z,5.88
2022-10-10T19:35:51.266Z,6.03
2022-10-10T19:40:57.007Z,5.63
2022-10-10T19:45:59.907Z,6.20
2022-10-10T19:51:05.438Z,5.63
2022-10-10T19:56:12.329Z,6.70
2022-10-10T20:01:17.364Z,6.63
2022-10-10T20:06:21.663Z,6.65
2022-10-10T20:11:26.327Z,7.00
2022-10-10T20:16:29.365Z,7.20
2022-10-10T20:21:34.110Z,6.47
2022-10-10T20:26:38.358Z,6.90
2022-10-10T20:31:41.148Z,7.30
2022-10-10T20:36:43.943Z,7.57
2022-10-10T20:41:48.029Z,7.87
2022-10-10T20:46:50.812Z,8.10
2022-10-10T20:51:53.577Z,7.77
2022-10-10T20:56:57.664Z,7.03
2022-10-10T21:02:00.560Z,8.40
2022-10-10T21:07:03.372Z,8.07
2022-10-10T21:12:07.892Z,7.27
2022-10-10T21:17:10.639Z,8.30
2022-10-10T21:22:13.442Z,8.13
2022-10-10T21:27:18.039Z,8.00
2022-10-10T21:32:20.795Z,8.20
2022-10-10T21:37:27.059Z,7.93
2022-10-10T21:42:31.165Z,7.93
2022-10-10T21:47:33.959Z,7.63
2022-10-10T21:52:36.690Z,7.80
2022-10-10T21:57:40.849Z,7.87
2022-10-10T22:02:44.697Z,8.20
2022-10-10T22:07:47.696Z,7.73
2022-10-10T22:12:51.825Z,7.83
2022-10-10T22:17:55.138Z,7.53
2022-10-10T22:22:58.101Z,8.03
2022-10-10T22:28:06.049Z,7.83
2022-10-10T22:33:09.711Z,7.73
2022-10-10T22:38:12.498Z,8.13
2022-10-10T22:43:16.760Z,7.83
2022-10-10T22:48:19.558Z,8.13
2022-10-10T22:53:24.026Z,7.93
2022-10-10T22:58:28.386Z,8.10
2022-10-10T23:03:31.165Z,8.30
2022-10-10T23:08:34.231Z,7.63
2022-10-10T23:13:38.360Z,8.13
2022-10-10T23:18:41.130Z,8.07
2022-10-10T23:23:43.882Z,7.93
2022-10-10T23:28:50.412Z,8.13
2022-10-10T23:33:53.414Z,7.30
2022-10-10T23:38:56.155Z,7.53
2022-10-10T23:44:00.285Z,8.73
2022-10-10T23:49:03.064Z,7.77
2022-10-10T23:54:05.914Z,7.93
2022-10-10T23:59:10.019Z,8.07
